Tuesday, March 03, 2015
16:33 UTC
  |  Log In   |  Register Free
Airport Search:

Williamsburg-Jamestown Airport
(KJGG)

Williamsburg-Jamestown Airport Diagram
No Airport Diagram Available

FAA data valid effective January 08, 2015 - March 05, 2015 (unless otherwise noted).

 
 
 
 
 
 
 
 
 
 
 
 
 
 

Current Aviation Weather for Williamsburg-Jamestown Airport (KJGG)

The most recent METAR observation for KJGG was updated at: 1611
METAR Summary (Translated METAR)
KJGG
031555Z AUTO 12003KT 10SM OVC055 03/M05 A3043 RMK AO1
KFAF
031558Z AUTO 13005KT 10SM OVC055 02/M06 A3041 RMK AO2 SLP301 T00191062 $
(8.2 nm SE from KJGG)
KPHF
031554Z 07004KT 10SM OVC055 03/M06 A3043 RMK AO2 SLP305 T00281061
(12.5 nm SE from KJGG)
TAF Summary (Translated TAF)
KFAF
(8.2 nm SE from KJGG)
0311/0417 06007KT 9999 FEW050 BKN100 QNH3030INS BECMG 0316/0317 11009KT 9999 BKN035 OVC060 QNH3014INS BECMG 0321/0322 15009KT 8000 -SHRA BKN020 OVC040 QNH3003INS BECMG 0400/0401 22009KT 6000 -SHRA OVC005 WS020/20060KT QNH2991INS TEMPO 0408/0412 2000 -SHRA BR TX04/0322Z TNM03/0311Z
KPHF
(12.5 nm SE from KJGG)
031140Z 0312/0412 06005KT P6SM SCT060 BKN250 FM031700 14006KT P6SM OVC050 FM032300 17008KT 4SM -RA SCT012 OVC040 FM040300 19008KT 4SM BR OVC005
  Airport Weather Conditions for KJGG

 Current Weather at JGG
37° F
Mostly Cloudy
Southeast winds at 4.6 mph
JGG NOAA Radar

Pressure: 30.44 in
Humidity: 56%
Wind: Southeast at 4.6 MPH (4 KT)
Dew Point: 23.0°F
Visibility: 10.00 mi


Airport Weather Forecast for KJGG

Translated METAR and TAF for KJGG
Translated METAR for KJGG (1633 UTC 03 March 2015)
found at http://aviationweather.gov/adds/metars/
 
METAR text: KJGG 031615Z AUTO 15004KT 10SM OVC055 03/M05 A3042 RMK AO1
Conditions at: KJGG (WILLIAMSBURG , VA, US) observed 1615 UTC 03 March 2015
Temperature: 3.0°C (37°F)
Dewpoint: -5.0°C (23°F) [RH = 56%]
Pressure (altimeter): 30.42 inches Hg (1030.2 mb)
Winds: from the SSE (150 degrees) at 5 MPH (4 knots; 2.1 m/s)
Visibility: 10 or more miles (16+ km)
Ceiling: 5500 feet AGL
Clouds: overcast cloud deck at 5500 feet AGL
Weather: automated observation with no human augmentation;
there may or may not be significant weather present at this time
Translated TAF for KJGG

There is no translated TAF available for this airport

Find All Airport Services Find A Hotel Find A Rental Car Find A Golf Course Find A Restaurant $100 Hamburger



FBO's on the Field
FBO Company Facility Photos Services Transportation Aviation Fuel Prices: Prices include tax
Catering Weather Repair Courtesy Rental Type 100LL JetA JetA+ MOGAS 8087
 
Williamsburg-Jamestown

This FBO has not yet been rated
FS:Shell
Last Updated: Feb-18
Login to update fuel prices
SS:
Contact Williamsburg-JamestownMore FBO Information
 
Add another FBO Facility Photos Catering Weather Repair Courtesy Rental Type 100LL JetA JetA+ MOGAS 8087
Services Transportation Aviation Fuel Prices: Prices include tax


model-print
model-print
model-print
model-print